Time;durP1;ratioP1;P1;durP2;ratioP2;P2;SDS_P1;SDS_P2;PMS_P1;PMS_P2;Temp;Humidity;BMP_temperature;BMP_pressure;BME280_temperature;BME280_humidity;BME280_pressure;Samples;Min_cycle;Max_cycle;Signal;HPM_P1;HPM_P2
2022/12/14 00:01:22;;;;;;;28.50;12.32;;;-7.50;99.90;;;-9.66;100.00;99958.34;4910562;29;20095;-77
2022/12/14 00:03:50;;;;;;;29.13;11.32;;;-7.50;99.90;;;-9.65;100.00;99952.13;4904161;29;20051;-77
2022/12/14 00:06:25;;;;;;;32.95;12.90;;;-7.50;99.90;;;-9.62;100.00;99957.19;4910663;29;20055;-77
2022/12/14 00:08:55;;;;;;;28.15;11.73;;;-7.50;99.90;;;-9.55;100.00;99954.94;4908388;29;20165;-77
2022/12/14 00:11:22;;;;;;;27.35;12.30;;;-7.40;99.90;;;-9.55;100.00;99952.31;4900964;29;20040;-77
2022/12/14 00:14:00;;;;;;;27.93;11.63;;;-7.40;99.90;;;-9.49;100.00;99956.34;4904178;29;20056;-77
2022/12/14 00:16:29;;;;;;;29.27;12.38;;;-7.40;99.90;;;-9.50;100.00;99952.00;4903121;29;20475;-77
2022/12/14 00:18:58;;;;;;;27.50;12.27;;;-7.30;99.90;;;-9.48;100.00;99945.69;4899036;29;20071;-76
2022/12/14 00:21:25;;;;;;;28.40;12.30;;;-7.30;99.90;;;-9.47;100.00;99952.66;4910079;29;20044;-77
2022/12/14 00:23:52;;;;;;;30.25;12.85;;;-7.30;99.90;;;-9.47;100.00;99944.72;4903873;29;20103;-77
2022/12/14 00:26:28;;;;;;;29.95;13.13;;;-7.30;99.90;;;-9.54;100.00;99946.94;4911342;29;20040;-77
2022/12/14 00:28:56;;;;;;;23.13;11.05;;;-7.40;99.90;;;-9.49;100.00;99946.63;4905287;29;20124;-78
2022/12/14 00:31:23;;;;;;;29.57;13.20;;;-7.30;99.90;;;-9.51;100.00;99947.69;4906565;29;20032;-76
2022/12/14 00:33:49;;;;;;;32.40;12.20;;;-7.40;99.90;;;-9.55;100.00;99945.25;4902006;29;20392;-77
2022/12/14 00:36:15;;;;;;;24.98;11.15;;;-7.40;99.90;;;-9.56;100.00;99937.41;4901030;29;20036;-77
2022/12/14 00:38:41;;;;;;;26.27;11.80;;;-7.40;99.90;;;-9.53;100.00;99937.22;4904272;29;20044;-76
2022/12/14 00:41:08;;;;;;;31.65;13.07;;;-7.40;99.90;;;-9.58;100.00;99928.75;4903652;29;20657;-77
2022/12/14 00:43:35;;;;;;;26.10;12.13;;;-7.40;99.90;;;-9.63;100.00;99925.59;4904492;29;20076;-76
2022/12/14 00:46:01;;;;;;;28.42;11.50;;;-7.50;99.90;;;-9.62;100.00;99933.41;4911081;29;20135;-77
2022/12/14 00:48:27;;;;;;;25.92;11.35;;;-7.50;99.90;;;-9.60;100.00;99928.88;4910207;29;20052;-77
2022/12/14 00:50:54;;;;;;;26.83;12.10;;;-7.50;99.90;;;-9.61;100.00;99921.91;4905747;29;20850;-78
2022/12/14 00:53:21;;;;;;;26.80;12.00;;;-7.50;99.90;;;-9.63;100.00;99926.44;4909759;29;20028;-77
2022/12/14 00:55:48;;;;;;;23.33;11.15;;;-7.40;99.90;;;-9.65;100.00;99928.34;4909034;29;20194;-78
2022/12/14 00:58:17;;;;;;;30.05;11.35;;;-7.50;99.90;;;-9.64;100.00;99924.75;4909489;29;20036;-78
2022/12/14 01:00:43;;;;;;;23.80;10.88;;;-7.50;99.90;;;-9.63;100.00;99921.16;4909961;29;20111;-78
2022/12/14 01:03:11;;;;;;;25.55;11.38;;;-7.50;99.90;;;-9.63;100.00;99925.59;4908879;29;20656;-77
2022/12/14 01:05:38;;;;;;;27.50;11.40;;;-7.50;99.90;;;-9.66;100.00;99921.38;4909843;29;20195;-79
2022/12/14 01:08:04;;;;;;;27.20;11.80;;;-7.50;99.90;;;-9.65;100.00;99919.56;4909212;29;20070;-78
2022/12/14 01:10:31;;;;;;;24.42;10.95;;;-7.50;99.90;;;-9.66;100.00;99921.38;4910634;29;20291;-79
2022/12/14 01:12:56;;;;;;;25.17;11.45;;;-7.50;99.90;;;-9.69;100.00;99909.22;4908963;29;20101;-77
2022/12/14 01:15:22;;;;;;;28.50;12.38;;;-7.50;99.90;;;-9.65;100.00;99917.78;4910198;29;20039;-78
2022/12/14 01:17:51;;;;;;;25.05;12.20;;;-7.50;99.90;;;-9.60;100.00;99922.72;4909242;29;20110;-78
2022/12/14 01:20:17;;;;;;;28.05;12.43;;;-7.50;99.90;;;-9.68;100.00;99924.09;4903602;29;20044;-78
2022/12/14 01:22:42;;;;;;;28.50;11.88;;;-7.50;99.90;;;-9.69;100.00;99921.56;4904148;29;20060;-79
2022/12/14 01:25:08;;;;;;;32.38;12.63;;;-7.50;99.90;;;-9.71;100.00;99919.03;4904626;29;20028;-78
2022/12/14 01:27:34;;;;;;;30.20;11.73;;;-7.50;99.90;;;-9.73;100.00;99923.59;4910965;29;20032;-78
2022/12/14 01:30:00;;;;;;;28.38;11.65;;;-7.10;99.90;;;-9.74;100.00;99923.66;4905965;29;20119;-78
2022/12/14 01:32:27;;;;;;;30.08;11.82;;;-7.60;99.90;;;-9.80;100.00;99916.16;4909082;29;20020;-78
2022/12/14 01:34:52;;;;;;;26.88;12.15;;;-7.60;99.90;;;-9.80;100.00;99914.41;4908219;29;20223;-78
2022/12/14 01:37:18;;;;;;;30.33;13.35;;;-7.60;99.90;;;-9.79;100.00;99904.66;4905504;29;20457;-78
2022/12/14 01:39:45;;;;;;;27.42;11.93;;;-7.60;99.90;;;-9.80;100.00;99900.34;4903645;29;20040;-77
2022/12/14 01:42:14;;;;;;;31.77;13.15;;;-7.60;99.90;;;-9.71;100.00;99902.34;4907944;29;20055;-77
2022/12/14 01:44:42;;;;;;;30.80;12.73;;;-7.60;99.90;;;-9.65;100.00;99906.38;4908702;29;20036;-78
2022/12/14 01:47:31;;;;;;;31.08;12.52;;;-7.50;99.90;;;-9.61;100.00;99903.41;4909638;29;20087;-77
2022/12/14 01:50:10;;;;;;;28.90;12.48;;;-7.50;99.90;;;-9.55;100.00;99897.72;4908609;29;20359;-78
2022/12/14 01:52:40;;;;;;;;;;;-7.40;99.90;;;-9.54;100.00;99895.94;4910346;29;20032;-77
2022/12/14 01:55:23;;;;;;;25.98;10.98;;;-7.40;99.90;;;-9.56;100.00;99892.50;4909282;29;20405;-77
2022/12/14 01:58:20;;;;;;;27.73;11.88;;;-7.40;99.90;;;-9.63;100.00;99889.47;4908043;29;20066;-77
2022/12/14 02:00:48;;;;;;;27.45;11.52;;;-7.50;99.90;;;-9.69;100.00;99893.38;4900139;29;20044;-77
2022/12/14 02:03:32;;;;;;;27.83;11.95;;;-7.50;99.90;;;-9.72;100.00;99885.66;4907349;29;20040;-78
2022/12/14 02:06:08;;;;;;;27.58;12.02;;;-7.60;99.90;;;-9.82;100.00;99869.59;4908619;29;20120;-78
2022/12/14 02:08:34;;;;;;;26.98;11.13;;;-7.60;99.90;;;-9.82;100.00;99876.66;4908665;29;20032;-78
2022/12/14 02:11:02;;;;;;;29.00;12.03;;;-7.70;99.90;;;-9.86;100.00;99880.47;4908354;29;20479;-78
2022/12/14 02:13:39;;;;;;;30.13;11.80;;;-7.70;99.90;;;-9.90;100.00;99873.69;4906318;29;20024;-78
2022/12/14 02:16:06;;;;;;;30.63;13.02;;;-7.80;99.90;;;-9.93;100.00;99872.13;4905991;29;20123;-78
2022/12/14 02:18:32;;;;;;;24.45;11.23;;;-7.80;99.90;;;-10.03;100.00;99861.34;4905310;29;20048;-79
2022/12/14 02:21:23;;;;;;;30.38;11.85;;;-7.90;99.90;;;-10.07;100.00;99870.44;4904696;29;20398;-79
2022/12/14 02:24:34;;;;;;;29.90;12.00;;;-7.90;99.90;;;-10.17;100.00;99862.28;4909473;29;20381;-80
2022/12/14 02:27:24;;;;;;;;;;;-8.10;99.90;;;-10.21;100.00;99863.44;4904155;29;20041;-78
2022/12/14 02:30:05;;;;;;;22.38;10.07;;;-8.10;99.90;;;-10.27;100.00;99862.03;4902313;29;20014;-79
2022/12/14 02:33:03;;;;;;;25.60;10.88;;;-8.20;99.90;;;-10.30;100.00;99850.84;4910236;29;20044;-79
2022/12/14 02:35:50;;;;;;;23.60;9.80;;;-8.20;99.90;;;-10.33;100.00;99858.97;4908413;29;20119;-77
2022/12/14 02:38:45;;;;;;;21.02;9.98;;;-8.30;99.90;;;-10.38;100.00;99846.06;4908648;29;20043;-77
2022/12/14 02:41:37;;;;;;;23.00;10.65;;;-8.30;99.90;;;-10.41;100.00;99851.56;4909408;29;20036;-78
2022/12/14 02:44:32;;;;;;;24.35;10.13;;;-8.30;99.90;;;-10.48;100.00;99845.03;4908423;29;20040;-77
2022/12/14 02:47:28;;;;;;;23.60;9.98;;;-8.40;99.90;;;-10.51;100.00;99845.22;4906851;29;20039;-77
2022/12/14 02:50:09;;;;;;;22.75;9.95;;;-8.40;99.90;;;-10.55;100.00;99834.03;4908740;29;20063;-78
2022/12/14 02:53:02;;;;;;;26.08;9.95;;;-8.50;99.90;;;-10.53;100.00;99836.59;4909467;29;20040;-78
2022/12/14 02:55:38;;;;;;;24.25;9.98;;;-8.50;99.90;;;-10.58;100.00;99821.91;4911397;29;20124;-77
2022/12/14 02:58:18;;;;;;;26.52;11.85;;;-8.50;99.90;;;-10.60;100.00;99830.84;4907142;29;20032;-79
2022/12/14 03:00:46;;;;;;;24.48;10.07;;;-8.60;99.90;;;-10.61;100.00;99827.38;4912977;29;20028;-78
2022/12/14 03:03:12;;;;;;;28.88;11.55;;;-8.60;99.90;;;-10.62;100.00;99825.66;4911656;29;20138;-77
2022/12/14 03:05:38;;;;;;;27.10;11.45;;;-8.60;99.90;;;-10.67;100.00;99819.84;4907193;29;20048;-78
2022/12/14 03:08:14;;;;;;;27.85;10.77;;;-8.60;99.90;;;-10.70;100.00;99814.78;4908162;29;20115;-77
2022/12/14 03:10:55;;;;;;;27.40;10.93;;;-8.70;99.90;;;-10.74;100.00;99819.44;4908050;29;20034;-78
2022/12/14 03:13:35;;;;;;;28.67;12.55;;;-8.70;99.90;;;-10.76;100.00;99820.47;4912314;29;20045;-78
2022/12/14 03:16:43;;;;;;;22.67;10.50;;;-8.70;99.90;;;-10.82;100.00;99816.44;4906501;29;20048;-78
2022/12/14 03:19:27;;;;;;;23.55;10.25;;;-8.70;99.90;;;-10.84;100.00;99807.78;4911366;29;20051;-79
2022/12/14 03:22:00;;;;;;;22.92;10.02;;;-8.80;99.90;;;-10.84;100.00;99808.66;4912243;29;20070;-78
2022/12/14 03:24:41;;;;;;;25.45;10.07;;;-8.80;99.90;;;-10.80;100.00;99805.81;4907556;29;20074;-78
2022/12/14 03:27:36;;;;;;;24.92;11.35;;;-8.80;99.90;;;-10.87;100.00;99803.56;4912779;29;20039;-78
2022/12/14 03:30:15;;;;;;;23.38;10.95;;;-8.80;99.90;;;-10.91;100.00;99794.16;4912204;29;20028;-78
2022/12/14 03:32:52;;;;;;;23.15;11.10;;;-8.80;99.90;;;-10.74;100.00;99792.22;4912147;29;20088;-79
2022/12/14 03:35:31;;;;;;;23.90;10.68;;;-8.70;99.90;;;-10.56;100.00;99785.72;4908637;29;20055;-79
2022/12/14 03:38:16;;;;;;;26.90;11.00;;;-8.50;99.90;;;-10.39;100.00;99786.34;4912201;29;20440;-78
2022/12/14 03:40:56;;;;;;;23.38;10.55;;;-8.30;99.90;;;-10.34;100.00;99781.63;4911032;29;20384;-78
2022/12/14 03:43:44;;;;;;;26.13;11.52;;;-8.20;99.90;;;-10.28;100.00;99773.28;4909889;29;20407;-77
2022/12/14 03:46:23;;;;;;;24.35;11.15;;;-8.20;99.90;;;-10.23;100.00;99765.03;4908576;29;20063;-77
2022/12/14 03:48:58;;;;;;;25.52;11.07;;;-8.10;99.90;;;-10.19;100.00;99765.69;4908781;29;20045;-77
2022/12/14 03:51:38;;;;;;;28.35;11.45;;;-8.10;99.90;;;-10.24;100.00;99757.25;4910584;29;20144;-76
2022/12/14 03:54:27;;;;;;;29.50;11.07;;;;;;;-10.33;100.00;99756.94;4910455;29;20047;-79
2022/12/14 03:57:03;;;;;;;25.67;10.63;;;-8.20;99.90;;;-10.51;100.00;99753.75;4904808;29;20697;-76
2022/12/14 03:59:46;;;;;;;22.23;10.88;;;-8.30;99.90;;;-10.64;100.00;99751.09;4907942;29;20135;-77
2022/12/14 04:02:18;;;;;;;27.13;10.73;;;-8.50;99.90;;;-10.67;100.00;99756.59;4909245;29;20032;-77
2022/12/14 04:05:30;;;;;;;25.10;10.45;;;-8.50;99.90;;;-10.46;100.00;99753.47;4910258;29;20028;-77
2022/12/14 04:08:30;;;;;;;30.15;11.82;;;-8.40;99.90;;;-10.29;100.00;99753.13;4899049;29;20079;-78
2022/12/14 04:19:51;;;;;;;27.20;11.30;;;-8.30;99.90;;;-10.61;100.00;99732.47;4907270;29;20036;-77
2022/12/14 04:22:31;;;;;;;24.70;10.63;;;-8.40;99.90;;;-10.80;100.00;99724.09;4906719;29;20384;-76
2022/12/14 04:27:56;;;;;;;23.52;9.90;;;-8.80;99.90;;;-11.10;100.00;99717.28;4910363;29;20080;-77
2022/12/14 04:30:22;;;;;;;22.02;9.38;;;-9.00;99.90;;;-11.16;100.00;99708.78;4910785;29;20040;-77
2022/12/14 04:36:00;;;;;;;21.08;9.52;;;-9.10;99.90;;;-11.30;100.00;99724.66;4910199;29;20063;-76
2022/12/14 04:38:35;;;;;;;19.77;8.27;;;-9.20;99.90;;;-11.29;100.00;99723.72;4911633;29;20092;-77
2022/12/14 04:41:13;;;;;;;21.27;9.63;;;-9.20;99.90;;;-11.37;100.00;99716.31;4909264;29;20344;-76
2022/12/14 04:43:45;;;;;;;22.50;9.27;;;-9.20;99.90;;;-11.41;100.00;99718.28;4905821;29;20349;-76
2022/12/14 04:46:19;;;;;;;24.10;9.15;;;-9.30;99.90;;;-11.49;100.00;99717.94;4911152;29;20059;-77
2022/12/14 04:49:06;;;;;;;18.50;8.70;;;-9.40;99.90;;;-11.47;100.00;99721.31;4909706;29;20045;-77
2022/12/14 04:51:54;;;;;;;19.88;8.93;;;-9.40;99.90;;;-11.35;100.00;99716.22;4909654;29;20060;-77
2022/12/14 04:54:39;;;;;;;25.98;9.77;;;-9.30;99.90;;;-11.20;100.00;99706.47;4909680;29;20039;-77
2022/12/14 04:57:19;;;;;;;20.90;9.00;;;-9.10;99.90;;;-11.15;100.00;99705.22;4913844;29;20560;-77
2022/12/14 04:59:47;;;;;;;23.20;9.27;;;-9.00;99.90;;;-11.01;100.00;99700.84;4917043;29;20067;-76
2022/12/14 05:03:07;;;;;;;21.52;9.48;;;-8.90;99.90;;;-10.98;100.00;99700.63;4918470;29;20131;-77
2022/12/14 05:06:23;;;;;;;24.83;9.43;;;-8.80;99.90;;;-10.99;100.00;99705.06;4916469;29;20078;-77
2022/12/14 05:09:19;;;;;;;22.88;8.75;;;-8.80;99.90;;;-10.83;100.00;99698.78;4903245;29;20036;-77
2022/12/14 05:11:51;;;;;;;21.73;9.45;;;-8.70;99.90;;;-10.62;100.00;99691.19;4909205;29;20428;-77
2022/12/14 05:14:27;;;;;;;20.88;9.05;;;-8.60;99.90;;;-10.62;100.00;99680.66;4909919;29;20051;-77
2022/12/14 05:16:54;;;;;;;24.25;9.00;;;-8.50;99.90;;;-10.65;100.00;99682.66;4900183;29;20040;-77
2022/12/14 05:19:25;;;;;;;23.88;10.00;;;-8.50;99.90;;;-10.73;100.00;99694.59;4908091;29;20032;-73
2022/12/14 05:21:52;;;;;;;29.88;9.63;;;-8.50;99.90;;;-10.82;100.00;99687.28;4909659;29;20087;-76
2022/12/14 05:24:18;;;;;;;23.02;9.70;;;-8.60;99.90;;;-10.75;100.00;99688.53;4908505;29;20044;-77
2022/12/14 05:26:44;;;;;;;24.02;10.82;;;-8.60;99.90;;;-10.78;100.00;99687.94;4908158;29;20041;-78
2022/12/14 05:29:10;;;;;;;20.92;8.65;;;-8.60;99.90;;;-10.99;100.00;99678.72;4904764;29;20047;-77
2022/12/14 05:31:36;;;;;;;20.08;9.25;;;-8.70;99.90;;;-11.15;100.00;99676.25;4909752;29;20039;-77
2022/12/14 05:34:02;;;;;;;23.58;9.65;;;-8.90;99.90;;;-11.17;100.00;99679.94;4909737;29;20036;-78
2022/12/14 05:36:28;;;;;;;22.13;8.88;;;-9.10;99.90;;;-11.34;100.00;99681.03;4911610;29;20039;-77
2022/12/14 05:38:54;;;;;;;20.05;8.82;;;-9.20;99.90;;;-11.46;100.00;99675.63;4908616;29;20091;-77
2022/12/14 05:41:19;;;;;;;18.15;7.35;;;-9.30;99.90;;;-11.59;100.00;99678.19;4908166;29;20483;-78
2022/12/14 05:43:45;;;;;;;19.15;8.10;;;-9.40;99.90;;;-11.67;100.00;99677.84;4909526;29;20415;-77
2022/12/14 05:46:11;;;;;;;21.33;8.73;;;-9.50;99.90;;;-11.77;100.00;99671.50;4908460;29;20033;-77
2022/12/14 05:48:40;;;;;;;18.05;7.55;;;-9.70;99.90;;;-11.86;100.00;99670.28;4904500;29;20059;-76
2022/12/14 05:51:12;;;;;;;17.75;8.20;;;-9.80;99.90;;;-11.94;100.00;99664.63;4908356;29;20099;-77
2022/12/14 05:53:39;;;;;;;16.00;7.65;;;-9.80;99.90;;;-11.92;100.00;99668.88;4909515;29;20020;-77
2022/12/14 05:56:07;;;;;;;18.80;7.45;;;-9.80;99.90;;;-11.86;100.00;99663.22;4904547;29;20040;-76
2022/12/14 05:58:34;;;;;;;18.15;7.75;;;-9.80;99.90;;;-11.80;100.00;99663.75;4905086;29;20039;-76
2022/12/14 06:01:04;;;;;;;21.30;7.72;;;-9.70;99.90;;;-11.66;100.00;99658.47;4908780;29;20036;-73
2022/12/14 06:03:30;;;;;;;19.63;8.45;;;-9.50;99.90;;;-11.58;100.00;99650.09;4908591;29;20043;-74
2022/12/14 06:06:10;;;;;;;19.92;8.18;;;-9.40;99.90;;;-11.41;100.00;99652.44;4909079;29;20108;-74
2022/12/14 06:08:42;;;;;;;16.40;7.65;;;-9.30;99.90;;;-11.31;100.00;99633.44;4909262;29;20054;-74
2022/12/14 06:11:18;;;;;;;19.58;8.43;;;-9.20;99.90;;;-11.31;100.00;99625.53;4905424;29;20032;-75
2022/12/14 06:13:44;;;;;;;17.15;7.70;;;-9.10;99.90;;;-11.41;100.00;99620.03;4894755;29;20089;-77
2022/12/14 06:16:18;;;;;;;16.40;8.02;;;-9.20;99.90;;;-11.58;100.00;99607.97;4908351;29;20036;-78
2022/12/14 06:18:46;;;;;;;21.10;7.63;;;-9.30;99.90;;;-11.61;100.00;99621.34;4910332;29;20037;-80
2022/12/14 06:21:17;;;;;;;18.95;7.75;;;-9.40;99.90;;;-11.71;100.00;99621.91;4904281;29;20040;-76
2022/12/14 06:23:43;;;;;;;17.85;7.65;;;-9.50;99.90;;;-11.79;100.00;99618.94;4903104;29;20032;-77
2022/12/14 06:26:10;;;;;;;20.30;8.77;;;-9.60;99.90;;;-11.87;100.00;99608.06;4909766;29;20835;-77
2022/12/14 06:28:37;;;;;;;16.95;8.10;;;-9.70;99.90;;;-11.90;100.00;99603.00;4912310;29;20097;-77
2022/12/14 06:31:04;;;;;;;21.38;7.65;;;-9.80;99.90;;;-11.97;100.00;99612.22;4908181;29;20126;-76
2022/12/14 06:33:33;;;;;;;16.77;8.13;;;-9.80;99.90;;;-12.05;100.00;99602.25;4912598;29;20186;-77
2022/12/14 06:36:00;;;;;;;20.92;8.07;;;-9.90;99.90;;;-12.00;100.00;99602.75;4911789;29;20395;-76
2022/12/14 06:38:26;;;;;;;22.65;9.23;;;-9.90;99.90;;;-11.79;100.00;99602.31;4911758;29;20126;-75
2022/12/14 06:40:52;;;;;;;18.00;7.80;;;-9.70;99.90;;;-11.63;100.00;99599.53;4912842;29;20263;-73
2022/12/14 06:43:18;;;;;;;20.70;8.95;;;-9.60;99.90;;;-11.53;100.00;99605.88;4906356;29;20041;-76
2022/12/14 06:45:43;;;;;;;19.08;7.78;;;-9.40;99.90;;;-11.59;100.00;99601.03;4908624;29;20455;-76
2022/12/14 06:48:09;;;;;;;20.88;9.38;;;-9.40;99.90;;;-11.65;100.00;99604.06;4912193;29;20036;-75
2022/12/14 06:50:36;;;;;;;18.40;8.60;;;-9.50;99.90;;;-11.70;100.00;99586.75;4912526;29;20063;-75
2022/12/14 06:53:02;;;;;;;21.25;8.75;;;-9.50;99.90;;;-11.76;100.00;99589.78;4910732;29;20027;-74
2022/12/14 06:55:28;;;;;;;17.83;8.05;;;-9.60;99.90;;;-11.82;100.00;99584.06;4908948;29;20103;-77
2022/12/14 06:57:55;;;;;;;19.63;8.07;;;-9.60;99.90;;;-11.83;100.00;99585.03;4912133;29;20035;-76
2022/12/14 07:00:23;;;;;;;18.70;8.10;;;-9.60;99.90;;;-11.88;100.00;99587.97;4904954;29;20032;-78
2022/12/14 07:02:49;;;;;;;17.70;8.10;;;-9.70;99.90;;;-11.96;100.00;99579.72;4909543;29;20752;-76
2022/12/14 07:05:15;;;;;;;18.25;6.90;;;-9.80;99.90;;;-12.00;100.00;99586.97;4911282;29;20414;-76
2022/12/14 07:07:42;;;;;;;17.38;8.00;;;-9.80;99.90;;;-12.03;100.00;99584.56;4906229;29;20080;-76
2022/12/14 07:10:09;;;;;;;17.90;7.78;;;-9.80;99.90;;;-11.89;100.00;99583.66;4911474;29;20020;-77
2022/12/14 07:12:35;;;;;;;20.48;8.27;;;-9.80;99.90;;;-11.78;100.00;99586.41;4909405;29;20024;-77
2022/12/14 07:15:02;;;;;;;16.85;7.60;;;-9.70;99.90;;;-11.75;100.00;99583.59;4906668;29;20040;-77
2022/12/14 07:17:27;;;;;;;22.05;8.98;;;-9.60;99.90;;;-11.68;100.00;99580.53;4910650;29;20115;-77
2022/12/14 07:19:54;;;;;;;33.72;8.82;;;-9.50;99.90;;;-11.64;100.00;99585.53;4911277;29;20048;-78
2022/12/14 07:22:20;;;;;;;18.33;8.68;;;-9.40;99.90;;;-11.52;100.00;99570.72;4906796;29;20131;-79
2022/12/14 07:24:46;;;;;;;18.05;8.77;;;-9.30;99.90;;;-11.46;100.00;99570.28;4909975;29;20496;-79
2022/12/14 07:27:12;;;;;;;19.30;9.05;;;-9.30;99.90;;;-11.42;100.00;99569.13;4910957;29;20119;-79
2022/12/14 07:29:37;;;;;;;21.42;9.45;;;-9.20;99.90;;;-11.29;100.00;99565.69;4917518;29;20256;-76
2022/12/14 07:32:03;;;;;;;22.92;9.10;;;-9.10;99.90;;;-11.23;100.00;99556.56;4917914;29;20399;-79
2022/12/14 07:34:29;;;;;;;25.77;10.45;;;-9.10;99.90;;;-11.19;100.00;99561.50;4921904;29;20355;-79
2022/12/14 07:36:55;;;;;;;17.40;8.52;;;-9.00;99.90;;;-11.21;100.00;99552.03;4916950;29;20114;-78
2022/12/14 07:39:21;;;;;;;19.75;8.93;;;-9.00;99.90;;;-11.18;100.00;99557.91;4918488;29;20118;-77
2022/12/14 07:41:49;;;;;;;20.35;8.48;;;-9.00;99.90;;;-11.20;100.00;99556.34;4913017;29;20206;-78
2022/12/14 07:44:19;;;;;;;21.90;8.77;;;-9.00;99.90;;;-11.20;100.00;99551.91;4911026;29;20036;-81
2022/12/14 07:46:45;;;;;;;19.38;7.80;;;-9.10;99.90;;;-11.18;100.00;99560.53;4913881;29;20067;-77
2022/12/14 07:49:11;;;;;;;21.52;9.05;;;-9.00;99.90;;;-11.15;100.00;99554.22;4914066;29;20059;-76
2022/12/14 07:51:40;;;;;;;19.33;8.55;;;-9.00;99.90;;;-11.13;100.00;99550.56;4917002;29;20031;-79
2022/12/14 07:54:07;;;;;;;19.08;8.15;;;-9.00;99.90;;;-11.07;100.00;99561.63;4916488;29;20042;-79
2022/12/14 07:56:38;;;;;;;18.23;8.02;;;-8.90;99.90;;;-11.08;100.00;99552.84;4919196;29;20504;-77
2022/12/14 07:59:07;;;;;;;18.48;8.20;;;-9.00;99.90;;;-11.06;100.00;99548.31;4920444;29;20138;-76
2022/12/14 08:01:35;;;;;;;22.40;8.70;;;-8.90;99.90;;;-11.01;100.00;99548.00;4908424;29;20143;-76
2022/12/14 08:04:17;;;;;;;19.40;8.77;;;-8.90;99.90;;;-10.97;100.00;99546.84;4911467;29;20079;-77
2022/12/14 08:06:45;;;;;;;21.25;8.90;;;-8.90;99.90;;;-10.92;100.00;99528.09;4910314;29;20032;-77
2022/12/14 08:09:12;;;;;;;21.50;8.48;;;-8.90;99.90;;;-10.89;100.00;99536.63;4916071;29;20063;-78
2022/12/14 08:11:39;;;;;;;20.08;9.02;;;-8.80;99.90;;;-10.86;100.00;99538.22;4919307;29;20043;-78
2022/12/14 08:14:12;;;;;;;22.15;8.20;;;-8.80;99.90;;;-10.80;100.00;99545.69;4914449;29;20032;-77
2022/12/14 08:16:38;;;;;;;19.73;8.50;;;-8.70;99.90;;;-10.75;100.00;99553.28;4914753;29;20038;-77
2022/12/14 08:19:04;;;;;;;21.48;9.20;;;-8.60;99.90;;;-10.71;100.00;99547.69;4915948;29;20036;-78
2022/12/14 08:21:30;;;;;;;20.55;9.10;;;-8.60;99.90;;;-10.61;100.00;99547.03;4917677;29;20060;-78
2022/12/14 08:23:56;;;;;;;20.95;8.98;;;-8.60;99.90;;;-10.55;100.00;99547.47;4911884;29;20123;-77
2022/12/14 08:26:24;;;;;;;21.90;9.82;;;-8.50;99.90;;;-10.44;100.00;99553.75;4909896;29;20056;-77
2022/12/14 08:28:50;;;;;;;25.67;9.20;;;-8.40;99.90;;;-10.41;100.00;99566.72;4911187;29;20407;-77
2022/12/14 08:31:22;;;;;;;22.65;9.27;;;-8.40;99.90;;;-10.41;100.00;99540.34;4909531;29;20032;-77
2022/12/14 08:33:49;;;;;;;22.58;9.52;;;-8.30;99.90;;;-10.26;100.00;99559.47;4911373;29;20042;-78
2022/12/14 08:36:28;;;;;;;20.65;9.27;;;-8.20;99.90;;;-10.16;100.00;99557.88;4911470;29;20043;-77
2022/12/14 08:38:59;;;;;;;20.85;9.07;;;-8.10;99.90;;;-10.06;100.00;99551.94;4911487;29;20594;-78
2022/12/14 08:41:27;;;;;;;21.40;9.05;;;-8.00;99.90;;;-10.03;100.00;99544.66;4910052;29;20039;-80
2022/12/14 08:43:58;;;;;;;32.90;9.43;;;-8.00;99.90;;;-9.97;100.00;99553.91;4903928;29;20036;-78
2022/12/14 08:46:26;;;;;;;16.65;8.43;;;-7.90;99.90;;;-9.91;100.00;99549.97;4910015;29;20494;-78
2022/12/14 08:48:53;;;;;;;20.20;8.80;;;-7.80;99.90;;;-9.81;100.00;99553.66;4910413;29;20044;-80
2022/12/14 08:51:20;;;;;;;21.52;9.82;;;-7.70;99.90;;;-9.71;100.00;99561.69;4909510;29;20032;-79
2022/12/14 08:53:46;;;;;;;19.23;8.63;;;-7.70;99.90;;;-9.66;100.00;99558.72;4900307;29;20108;-81
2022/12/14 08:56:18;;;;;;;19.77;8.63;;;-7.60;99.90;;;-9.67;100.00;99550.00;4909951;29;20471;-76
2022/12/14 08:58:44;;;;;;;22.05;9.18;;;-7.60;99.90;;;-9.56;100.00;99555.31;4909674;29;20047;-76
2022/12/14 09:01:12;;;;;;;23.15;9.35;;;-7.50;99.90;;;-9.45;100.00;99554.50;4909752;29;20036;-76
2022/12/14 09:03:40;;;;;;;22.10;9.32;;;-7.40;99.90;;;-9.31;100.00;99561.38;4905971;29;20091;-77
2022/12/14 09:06:10;;;;;;;21.95;9.25;;;-7.30;99.90;;;-9.19;100.00;99559.63;4907566;29;20036;-77
2022/12/14 09:08:36;;;;;;;21.33;10.00;;;-7.20;99.90;;;-9.12;100.00;99560.00;4908843;29;20028;-76
2022/12/14 09:11:04;;;;;;;22.17;9.88;;;-7.10;99.90;;;-9.14;100.00;99552.19;4910090;29;20538;-76
2022/12/14 09:13:32;;;;;;;20.40;9.98;;;-7.00;99.90;;;-9.13;100.00;99559.16;4910161;29;20095;-76
2022/12/14 09:16:13;;;;;;;24.48;9.90;;;-7.10;99.90;;;-9.15;100.00;99553.13;4909259;29;20047;-76
2022/12/14 09:18:39;;;;;;;17.65;8.82;;;-7.10;99.90;;;-9.08;100.00;99550.88;4909829;29;20131;-77
2022/12/14 09:21:06;;;;;;;25.42;9.65;;;-7.10;99.90;;;-9.12;100.00;99550.25;4917763;29;20044;-77
2022/12/14 09:23:34;;;;;;;18.88;9.02;;;-7.10;99.90;;;-9.08;100.00;99552.66;4911472;29;21060;-78
2022/12/14 09:26:07;;;;;;;20.15;9.82;;;-7.10;99.90;;;-9.18;100.00;99548.09;4913760;29;20063;-77
2022/12/14 09:28:36;;;;;;;19.70;8.73;;;-7.10;99.90;;;-9.20;100.00;99551.78;4917522;29;20063;-78
2022/12/14 09:31:06;;;;;;;20.45;9.02;;;-7.10;99.90;;;-9.16;100.00;99554.09;4916264;29;20040;-80
2022/12/14 09:33:33;;;;;;;22.95;9.82;;;-7.10;99.90;;;-9.12;100.00;99550.25;4913100;29;20347;-79
2022/12/14 09:36:18;;;;;;;20.90;9.15;;;-7.10;99.90;;;-9.11;100.00;99546.66;4904441;29;20369;-80
2022/12/14 09:38:45;;;;;;;20.10;10.05;;;-7.10;99.90;;;-9.07;100.00;99547.28;4916601;29;20055;-81
2022/12/14 09:41:40;;;;;;;18.17;9.85;;;-7.00;99.90;;;-8.96;100.00;99547.28;4914794;29;20439;-82
2022/12/14 09:44:51;;;;;;;22.20;9.80;;;-6.90;99.90;;;-8.81;100.00;99539.13;4887375;29;20579;-82
2022/12/14 09:47:23;;;;;;;22.65;9.93;;;-6.80;99.90;;;-8.69;100.00;99540.81;4905589;29;20447;-84
2022/12/14 09:50:10;;;;;;;25.08;11.10;;;-6.80;99.90;;;-8.56;100.00;99535.41;4910853;29;21613;-82
2022/12/14 09:52:48;;;;;;;25.20;11.13;;;-6.60;99.90;;;-8.46;100.00;99546.06;4915553;29;20039;-80
2022/12/14 09:55:25;;;;;;;22.20;10.85;;;-6.60;99.90;;;-8.36;100.00;99530.31;4909315;29;20032;-80
2022/12/14 09:58:04;;;;;;;27.63;12.18;;;-6.40;99.90;;;-7.72;100.00;99536.63;4910773;29;20126;-81
2022/12/14 10:00:43;;;;;;;28.33;12.75;;;-6.20;99.90;;;-7.00;100.00;99538.69;4902197;29;20047;-77
2022/12/14 10:04:00;;;;;;;29.55;12.48;;;-5.70;99.90;;;-6.70;100.00;99535.25;4907364;29;20047;-79
2022/12/14 10:06:42;;;;;;;30.05;13.05;;;-5.20;99.90;;;-6.94;100.00;99540.81;4904125;29;20040;-79
2022/12/14 10:09:53;;;;;;;37.65;14.80;;;-5.20;99.90;;;-7.38;100.00;99533.00;4903738;29;20028;-79
2022/12/14 10:12:58;;;;;;;26.73;15.27;;;-5.30;99.90;;;-7.83;100.00;99536.69;4907468;29;20028;-82
2022/12/14 10:16:14;;;;;;;33.90;15.77;;;-5.60;99.90;;;-7.88;100.00;99523.00;4907996;29;20028;-78
2022/12/14 10:19:08;;;;;;;33.70;15.60;;;-5.80;99.90;;;-7.75;100.00;99513.06;4908746;29;20549;-79
2022/12/14 10:21:58;;;;;;;35.58;16.65;;;-5.80;99.90;;;-7.46;100.00;99527.50;4909894;29;20042;-79
2022/12/14 10:24:41;;;;;;;34.13;16.05;;;-5.70;99.90;;;-6.66;100.00;99526.03;4908641;29;20043;-80
2022/12/14 10:27:13;;;;;;;30.65;15.55;;;-5.50;99.90;;;-4.89;97.39;99524.50;4901372;29;20024;-80
2022/12/14 10:29:48;;;;;;;30.55;14.45;;;-4.50;99.90;;;-4.41;83.37;99523.44;4906739;29;20558;-80
2022/12/14 10:32:35;;;;;;;35.10;14.93;;;-3.70;99.90;;;-2.63;77.04;99534.38;4909338;29;20073;-80
2022/12/14 10:35:13;;;;;;;34.05;15.13;;;-2.30;99.90;;;-2.26;70.99;99528.88;4908214;29;20067;-81
2022/12/14 10:37:46;;;;;;;25.70;13.10;;;-1.50;99.90;;;-2.33;65.87;99528.69;4907621;29;20036;-79
2022/12/14 10:40:32;;;;;;;26.40;14.20;;;-1.20;99.90;;;-1.26;66.30;99514.69;4907874;29;20036;-79
2022/12/14 10:43:23;;;;;;;26.02;13.82;;;-0.70;99.90;;;-0.93;60.49;99519.19;4909442;29;20044;-77